Charter Quote
Worldwide +1-877-727-2538 Call
Select Language Lang
SAFETY RELIABILITY EXPERIENCE

Minhad Ab Airport (OMDM) - Jet Charter Services

AIRPORT INFORMATION
ICAOOMDM
LOCATIONDubai, United Arab Emirates
FACILITY TYPEAIRPORT
Runway Length (ft) Width (ft) Surface Type Elevation (ft)
27/09 12970 148 ASP 164.88525

At Paramount Business Jets you can hire chartered private jets to and from Minhad Ab Airport with as little as 4 hours of notice. All flights booked via Paramount Business Jets are operated by certified direct air carriers that meet and exceed the FAA part 135 and 121 protocol or a foreign equivalent safety authority. Furthermore, Paramount Business Jets subscribes to ARGUS for their third party safety checks of operators, aircraft, and crews prior each and every flight to and from Minhad Ab Airport and worldwide.

  • Quote a trip using Minhad Ab Airport or call us 24/7 - 365 days a year at +1-877-727-2538.
Questions? Call +1-877-727-2538

METAR Weather Data at Minhad Ab Airport, OMDM

STATIONOMDM
OBSERVEDSun Mar 24, 07:00 UTC
NOWSun Mar 24, 07:18 UTC
AGE18 min ago
WINDSSE at 13 mph
VISIBILITY10 miles
CLOUDSclear skies
TEMP90°F (32°C)
DEWPT50°F (10°C)
HUMIDITY26%
BAROMETER1011 hPa (29.85 in Hg)
METAROMDM 240700Z 16011KT 6000 SKC 32/10 Q1011 A2986

Call us on +1-877-727-2538 (24 Hours) to Hire a Private Jet or Get a Quick Quote.

Find Airports Near any Location

Processing
...